DCCHB EDNY-EDFE
Flight info
| Callsign | DCCHB |
|---|---|
| Flight time | 0h 54m |
| Altitude | 22000 |
| Route | ALAGO1E ALAGO Z5 LOKTA/N0405F210 DCT TEDGO/N0399F200 T164 KOVAN DCT EBATU DCT FKS VFR DCT |
| Aircraft | LJ35/M-SGHRWXY/SB1 |
Departure
| Time | 2026-05-08 17:59 |
|---|---|
| Airport | Bodensee Airport Friedrichshafen (EDNY) |
Arrival
| Time | 2026-05-08 18:54 |
|---|---|
| Airport | Frankfurt-Egelsbach Airport (EDFE) |
| Time | Latitude | Longitude | Altitude | Speed | Heading |
|---|---|---|---|---|---|
| 2026-05-08 17:52 | 47.67274 | 9.52107 | 1370 ft | 0 kts | 352° |
| 2026-05-08 17:55 | 47.67300 | 9.52107 | 1370 ft | 7 kts | 341° |
| 2026-05-08 17:55 | 47.67305 | 9.52068 | 1370 ft | 0 kts | 238° |
| 2026-05-08 17:56 | 47.67305 | 9.52067 | 1370 ft | 1 kts | 238° |
| 2026-05-08 17:56 | 47.67269 | 9.51974 | 1370 ft | 15 kts | 240° |
| 2026-05-08 17:56 | 47.67213 | 9.51827 | 1370 ft | 18 kts | 240° |
| 2026-05-08 17:57 | 47.67148 | 9.51659 | 1370 ft | 20 kts | 240° |
| 2026-05-08 17:57 | 47.67076 | 9.51478 | 1370 ft | 21 kts | 240° |
| 2026-05-08 17:57 | 47.67003 | 9.51289 | 1370 ft | 21 kts | 240° |
| 2026-05-08 17:57 | 47.66927 | 9.51091 | 1370 ft | 23 kts | 240° |
| 2026-05-08 17:58 | 47.66850 | 9.50892 | 1370 ft | 21 kts | 239° |
| 2026-05-08 17:58 | 47.66783 | 9.50719 | 1370 ft | 17 kts | 243° |
| 2026-05-08 17:58 | 47.66792 | 9.50608 | 1370 ft | 11 kts | 348° |
| 2026-05-08 17:58 | 47.66870 | 9.50660 | 1370 ft | 14 kts | 31° |
| 2026-05-08 17:59 | 47.66979 | 9.50775 | 1370 ft | 33 kts | 52° |
| 2026-05-08 17:59 | 47.67247 | 9.51447 | 1372 ft | 125 kts | 60° |
| 2026-05-08 17:59 | 47.67796 | 9.52866 | 1819 ft | 181 kts | 59° |
| 2026-05-08 17:59 | 47.68754 | 9.54146 | 2743 ft | 191 kts | 21° |
| 2026-05-08 18:00 | 47.70033 | 9.54662 | 3976 ft | 203 kts | 9° |
| 2026-05-08 18:00 | 47.73021 | 9.52964 | 6296 ft | 260 kts | 328° |
| 2026-05-08 18:00 | 47.74555 | 9.51428 | 7608 ft | 276 kts | 326° |
| 2026-05-08 18:01 | 47.76272 | 9.49756 | 8456 ft | 315 kts | 326° |
| 2026-05-08 18:01 | 47.78222 | 9.47931 | 9305 ft | 346 kts | 327° |
| 2026-05-08 18:01 | 47.80366 | 9.45984 | 10123 ft | 366 kts | 331° |
| 2026-05-08 18:01 | 47.82655 | 9.44302 | 11531 ft | 372 kts | 331° |
| 2026-05-08 18:02 | 47.84979 | 9.42501 | 12785 ft | 380 kts | 330° |
| 2026-05-08 18:02 | 47.86541 | 9.41282 | 13620 ft | 385 kts | 330° |
| 2026-05-08 18:02 | 47.89777 | 9.38833 | 15148 ft | 395 kts | 331° |
| 2026-05-08 18:02 | 47.92252 | 9.36971 | 16316 ft | 401 kts | 331° |
| 2026-05-08 18:03 | 47.94753 | 9.35062 | 17444 ft | 407 kts | 330° |
| 2026-05-08 18:03 | 47.97290 | 9.33116 | 18495 ft | 413 kts | 331° |
| 2026-05-08 18:03 | 47.99868 | 9.31151 | 19396 ft | 419 kts | 331° |
| 2026-05-08 18:03 | 48.02481 | 9.29160 | 20272 ft | 424 kts | 330° |
| 2026-05-08 18:04 | 48.05118 | 9.27143 | 20985 ft | 427 kts | 330° |
| 2026-05-08 18:04 | 48.07821 | 9.25068 | 21019 ft | 446 kts | 330° |
| 2026-05-08 18:04 | 48.10618 | 9.22926 | 21027 ft | 455 kts | 330° |
| 2026-05-08 18:04 | 48.13500 | 9.20891 | 21022 ft | 464 kts | 337° |
| 2026-05-08 18:05 | 48.16641 | 9.19726 | 21016 ft | 468 kts | 349° |
| 2026-05-08 18:05 | 48.19846 | 9.19147 | 21028 ft | 464 kts | 352° |
| 2026-05-08 18:05 | 48.23061 | 9.18753 | 21033 ft | 460 kts | 354° |
| 2026-05-08 18:05 | 48.26120 | 9.18383 | 21029 ft | 456 kts | 352° |
| 2026-05-08 18:06 | 48.29256 | 9.17892 | 21031 ft | 453 kts | 351° |
| 2026-05-08 18:06 | 48.32380 | 9.17376 | 21027 ft | 451 kts | 352° |
| 2026-05-08 18:06 | 48.35464 | 9.16624 | 21027 ft | 447 kts | 345° |
| 2026-05-08 18:06 | 48.38778 | 9.15373 | 21027 ft | 445 kts | 342° |
| 2026-05-08 18:07 | 48.41453 | 9.14206 | 21033 ft | 444 kts | 341° |
| 2026-05-08 18:07 | 48.44409 | 9.12858 | 21034 ft | 444 kts | 341° |
| 2026-05-08 18:07 | 48.47381 | 9.11601 | 21036 ft | 444 kts | 342° |
| 2026-05-08 18:07 | 48.50365 | 9.10391 | 21039 ft | 444 kts | 342° |
| 2026-05-08 18:08 | 48.53339 | 9.09132 | 21042 ft | 444 kts | 342° |
| 2026-05-08 18:08 | 48.56313 | 9.07838 | 21044 ft | 444 kts | 342° |
| 2026-05-08 18:08 | 48.59248 | 9.06581 | 21047 ft | 445 kts | 342° |
| 2026-05-08 18:08 | 48.62228 | 9.05328 | 21047 ft | 445 kts | 342° |
| 2026-05-08 18:09 | 48.65218 | 9.04057 | 21050 ft | 446 kts | 342° |
| 2026-05-08 18:09 | 48.68206 | 9.02771 | 21055 ft | 447 kts | 342° |
| 2026-05-08 18:09 | 48.71205 | 9.01484 | 21055 ft | 448 kts | 342° |
| 2026-05-08 18:09 | 48.74212 | 9.00201 | 21045 ft | 449 kts | 342° |
| 2026-05-08 18:10 | 48.77203 | 8.98921 | 20372 ft | 441 kts | 342° |
| 2026-05-08 18:10 | 48.80120 | 8.97668 | 19615 ft | 431 kts | 342° |
| 2026-05-08 18:10 | 48.82543 | 8.96623 | 18992 ft | 425 kts | 342° |
| 2026-05-08 18:10 | 48.85786 | 8.95226 | 18124 ft | 422 kts | 342° |
| 2026-05-08 18:11 | 48.88605 | 8.94013 | 17435 ft | 419 kts | 342° |
| 2026-05-08 18:11 | 48.91400 | 8.92807 | 16761 ft | 416 kts | 342° |
| 2026-05-08 18:11 | 48.93234 | 8.92015 | 16335 ft | 414 kts | 342° |
| 2026-05-08 18:11 | 48.96931 | 8.90416 | 15638 ft | 407 kts | 342° |
| 2026-05-08 18:12 | 48.99623 | 8.89250 | 15281 ft | 400 kts | 342° |
| 2026-05-08 18:12 | 49.01888 | 8.88268 | 15056 ft | 395 kts | 342° |
| 2026-05-08 18:12 | 49.05097 | 8.86878 | 15048 ft | 382 kts | 342° |
| 2026-05-08 18:12 | 49.07416 | 8.85869 | 15043 ft | 374 kts | 342° |
| 2026-05-08 18:13 | 49.09900 | 8.84789 | 15044 ft | 368 kts | 342° |
| 2026-05-08 18:13 | 49.12346 | 8.83725 | 15041 ft | 367 kts | 342° |
| 2026-05-08 18:13 | 49.14789 | 8.82659 | 15045 ft | 370 kts | 342° |
| 2026-05-08 18:13 | 49.17248 | 8.81587 | 15045 ft | 365 kts | 342° |
| 2026-05-08 18:14 | 49.19703 | 8.80514 | 14950 ft | 369 kts | 342° |
| 2026-05-08 18:14 | 49.22174 | 8.79433 | 14416 ft | 368 kts | 343° |
| 2026-05-08 18:14 | 49.24587 | 8.78380 | 13662 ft | 353 kts | 343° |
| 2026-05-08 18:14 | 49.26907 | 8.77364 | 12851 ft | 341 kts | 342° |
| 2026-05-08 18:15 | 49.29155 | 8.76378 | 12011 ft | 332 kts | 342° |
| 2026-05-08 18:15 | 49.31352 | 8.75413 | 11199 ft | 325 kts | 342° |
| 2026-05-08 18:15 | 49.33495 | 8.74473 | 10572 ft | 314 kts | 342° |
| 2026-05-08 18:15 | 49.35557 | 8.73567 | 10010 ft | 303 kts | 342° |
| 2026-05-08 18:16 | 49.37553 | 8.72688 | 9394 ft | 295 kts | 342° |
| 2026-05-08 18:16 | 49.39501 | 8.71830 | 8794 ft | 288 kts | 342° |
| 2026-05-08 18:16 | 49.41406 | 8.70990 | 8213 ft | 282 kts | 342° |
| 2026-05-08 18:16 | 49.43270 | 8.70169 | 7634 ft | 276 kts | 342° |
| 2026-05-08 18:17 | 49.45206 | 8.69313 | 7053 ft | 271 kts | 342° |
| 2026-05-08 18:17 | 49.46902 | 8.68562 | 6535 ft | 268 kts | 342° |
| 2026-05-08 18:17 | 49.48689 | 8.67773 | 5964 ft | 265 kts | 342° |
| 2026-05-08 18:17 | 49.50450 | 8.66994 | 5412 ft | 263 kts | 343° |
| 2026-05-08 18:18 | 49.52206 | 8.66216 | 4872 ft | 262 kts | 344° |
| 2026-05-08 18:18 | 49.53945 | 8.65354 | 4301 ft | 265 kts | 336° |
| 2026-05-08 18:18 | 49.55510 | 8.63652 | 3876 ft | 271 kts | 321° |
| 2026-05-08 18:18 | 49.56866 | 8.61780 | 3558 ft | 273 kts | 319° |
| 2026-05-08 18:19 | 49.58258 | 8.59790 | 3280 ft | 273 kts | 319° |
| 2026-05-08 18:19 | 49.59665 | 8.57755 | 3012 ft | 273 kts | 319° |
| 2026-05-08 18:19 | 49.61006 | 8.55806 | 2988 ft | 265 kts | 319° |
| 2026-05-08 18:19 | 49.62322 | 8.53888 | 2995 ft | 257 kts | 318° |
| 2026-05-08 18:20 | 49.63613 | 8.52001 | 2977 ft | 251 kts | 318° |
| 2026-05-08 18:20 | 49.64863 | 8.50178 | 2978 ft | 248 kts | 318° |
| 2026-05-08 18:20 | 49.66115 | 8.48358 | 2988 ft | 250 kts | 319° |
| 2026-05-08 18:20 | 49.67418 | 8.46557 | 2989 ft | 251 kts | 320° |
| 2026-05-08 18:21 | 49.68739 | 8.44766 | 2983 ft | 253 kts | 320° |
| 2026-05-08 18:21 | 49.70007 | 8.43044 | 2991 ft | 254 kts | 319° |
| 2026-05-08 18:21 | 49.71244 | 8.41103 | 2989 ft | 256 kts | 314° |
| 2026-05-08 18:21 | 49.72510 | 8.38943 | 2992 ft | 256 kts | 314° |
| 2026-05-08 18:22 | 49.73631 | 8.37006 | 2986 ft | 257 kts | 313° |
| 2026-05-08 18:22 | 49.74418 | 8.35640 | 2999 ft | 258 kts | 313° |
| 2026-05-08 18:22 | 49.76021 | 8.32873 | 3002 ft | 258 kts | 314° |
| 2026-05-08 18:22 | 49.77267 | 8.30879 | 3000 ft | 258 kts | 317° |
| 2026-05-08 18:23 | 49.78550 | 8.28930 | 2999 ft | 257 kts | 317° |
| 2026-05-08 18:23 | 49.79828 | 8.27006 | 3011 ft | 255 kts | 317° |
| 2026-05-08 18:23 | 49.81097 | 8.25091 | 3006 ft | 254 kts | 317° |
| 2026-05-08 18:23 | 49.82359 | 8.23183 | 3009 ft | 252 kts | 317° |
| 2026-05-08 18:24 | 49.83726 | 8.21542 | 3001 ft | 246 kts | 328° |
| 2026-05-08 18:24 | 49.85146 | 8.20111 | 3004 ft | 242 kts | 329° |
| 2026-05-08 18:24 | 49.86604 | 8.18902 | 3005 ft | 229 kts | 338° |
| 2026-05-08 18:24 | 49.88013 | 8.18014 | 3001 ft | 209 kts | 341° |
| 2026-05-08 18:25 | 49.89291 | 8.17244 | 3003 ft | 192 kts | 340° |
| 2026-05-08 18:25 | 49.90101 | 8.16719 | 3000 ft | 182 kts | 339° |
| 2026-05-08 18:25 | 49.91319 | 8.15922 | 3001 ft | 174 kts | 339° |
| 2026-05-08 18:25 | 49.92710 | 8.15013 | 2994 ft | 176 kts | 340° |
| 2026-05-08 18:26 | 49.93868 | 8.14250 | 3005 ft | 185 kts | 339° |
| 2026-05-08 18:26 | 49.95089 | 8.13448 | 3005 ft | 191 kts | 339° |
| 2026-05-08 18:26 | 49.96320 | 8.12649 | 3021 ft | 197 kts | 339° |
| 2026-05-08 18:26 | 49.97181 | 8.12092 | 3024 ft | 200 kts | 340° |
| 2026-05-08 18:27 | 49.98892 | 8.10992 | 3024 ft | 201 kts | 340° |
| 2026-05-08 18:27 | 49.99782 | 8.10492 | 3027 ft | 202 kts | 345° |
| 2026-05-08 18:27 | 50.01639 | 8.09626 | 3030 ft | 223 kts | 345° |
| 2026-05-08 18:27 | 50.03160 | 8.08935 | 3028 ft | 231 kts | 345° |
| 2026-05-08 18:28 | 50.04749 | 8.08410 | 3024 ft | 236 kts | 1° |
| 2026-05-08 18:28 | 50.06371 | 8.08919 | 3030 ft | 242 kts | 24° |
| 2026-05-08 18:28 | 50.07863 | 8.10211 | 3027 ft | 249 kts | 36° |
| 2026-05-08 18:28 | 50.09236 | 8.11912 | 3035 ft | 255 kts | 40° |
| 2026-05-08 18:29 | 50.10093 | 8.13176 | 3019 ft | 256 kts | 51° |
| 2026-05-08 18:29 | 50.11036 | 8.15852 | 3026 ft | 246 kts | 66° |
| 2026-05-08 18:29 | 50.11809 | 8.18783 | 3021 ft | 239 kts | 68° |
| 2026-05-08 18:29 | 50.12422 | 8.21172 | 3019 ft | 235 kts | 68° |
| 2026-05-08 18:30 | 50.13020 | 8.23521 | 3020 ft | 232 kts | 68° |
| 2026-05-08 18:30 | 50.13610 | 8.25847 | 3008 ft | 229 kts | 68° |
| 2026-05-08 18:30 | 50.13997 | 8.27368 | 3005 ft | 228 kts | 68° |
| 2026-05-08 18:30 | 50.14640 | 8.30479 | 3000 ft | 227 kts | 77° |
| 2026-05-08 18:31 | 50.14879 | 8.32082 | 3014 ft | 228 kts | 76° |
| 2026-05-08 18:31 | 50.15243 | 8.34510 | 3014 ft | 231 kts | 76° |
| 2026-05-08 18:31 | 50.15628 | 8.36951 | 3015 ft | 233 kts | 74° |
| 2026-05-08 18:31 | 50.16217 | 8.40177 | 3013 ft | 233 kts | 73° |
| 2026-05-08 18:32 | 50.16524 | 8.41822 | 3018 ft | 235 kts | 73° |
| 2026-05-08 18:32 | 50.16981 | 8.44275 | 3023 ft | 236 kts | 73° |
| 2026-05-08 18:32 | 50.17443 | 8.46735 | 3022 ft | 237 kts | 73° |
| 2026-05-08 18:32 | 50.17902 | 8.49209 | 3032 ft | 238 kts | 73° |
| 2026-05-08 18:33 | 50.18328 | 8.51524 | 3032 ft | 239 kts | 73° |
| 2026-05-08 18:33 | 50.18792 | 8.54048 | 3031 ft | 239 kts | 73° |
| 2026-05-08 18:33 | 50.19283 | 8.56490 | 3025 ft | 239 kts | 65° |
| 2026-05-08 18:33 | 50.20342 | 8.58441 | 3019 ft | 238 kts | 34° |
| 2026-05-08 18:34 | 50.21888 | 8.59210 | 3010 ft | 235 kts | 2° |
| 2026-05-08 18:34 | 50.23446 | 8.58578 | 3014 ft | 234 kts | 331° |
| 2026-05-08 18:34 | 50.24650 | 8.56881 | 3017 ft | 234 kts | 313° |
| 2026-05-08 18:34 | 50.25574 | 8.54808 | 3017 ft | 234 kts | 296° |
| 2026-05-08 18:35 | 50.26129 | 8.52422 | 3027 ft | 233 kts | 286° |
| 2026-05-08 18:35 | 50.26381 | 8.49906 | 3026 ft | 235 kts | 275° |
| 2026-05-08 18:35 | 50.26301 | 8.47360 | 3015 ft | 235 kts | 264° |
| 2026-05-08 18:35 | 50.26080 | 8.44832 | 3018 ft | 235 kts | 262° |
| 2026-05-08 18:36 | 50.25849 | 8.42316 | 3019 ft | 234 kts | 262° |
| 2026-05-08 18:36 | 50.25494 | 8.39836 | 3014 ft | 235 kts | 248° |
| 2026-05-08 18:36 | 50.24766 | 8.37535 | 3019 ft | 238 kts | 242° |
| 2026-05-08 18:36 | 50.23976 | 8.35254 | 3024 ft | 240 kts | 242° |
| 2026-05-08 18:37 | 50.23170 | 8.32946 | 3029 ft | 242 kts | 240° |
| 2026-05-08 18:37 | 50.22301 | 8.30682 | 3029 ft | 244 kts | 237° |
| 2026-05-08 18:37 | 50.21227 | 8.28651 | 3023 ft | 243 kts | 225° |
| 2026-05-08 18:37 | 50.20026 | 8.26794 | 3027 ft | 243 kts | 224° |
| 2026-05-08 18:38 | 50.18804 | 8.24944 | 3004 ft | 245 kts | 223° |
| 2026-05-08 18:38 | 50.17577 | 8.23101 | 3021 ft | 245 kts | 223° |
| 2026-05-08 18:38 | 50.16366 | 8.21280 | 3026 ft | 245 kts | 223° |
| 2026-05-08 18:38 | 50.15148 | 8.19442 | 3028 ft | 244 kts | 223° |
| 2026-05-08 18:39 | 50.13928 | 8.17602 | 3020 ft | 243 kts | 223° |
| 2026-05-08 18:39 | 50.12652 | 8.15871 | 3020 ft | 243 kts | 216° |
| 2026-05-08 18:39 | 50.11280 | 8.14341 | 3019 ft | 242 kts | 213° |
| 2026-05-08 18:39 | 50.09913 | 8.12872 | 3016 ft | 242 kts | 213° |
| 2026-05-08 18:40 | 50.08511 | 8.11375 | 3014 ft | 241 kts | 213° |
| 2026-05-08 18:40 | 50.07070 | 8.10162 | 3004 ft | 229 kts | 193° |
| 2026-05-08 18:40 | 50.05553 | 8.10075 | 3001 ft | 212 kts | 168° |
| 2026-05-08 18:40 | 50.04158 | 8.10640 | 2999 ft | 203 kts | 161° |
| 2026-05-08 18:41 | 50.02600 | 8.11349 | 3007 ft | 189 kts | 161° |
| 2026-05-08 18:41 | 50.01594 | 8.11844 | 3003 ft | 183 kts | 159° |
| 2026-05-08 18:41 | 50.00388 | 8.12451 | 3005 ft | 183 kts | 160° |
| 2026-05-08 18:41 | 49.99178 | 8.13070 | 3011 ft | 183 kts | 159° |
| 2026-05-08 18:42 | 49.97954 | 8.13634 | 3001 ft | 184 kts | 168° |
| 2026-05-08 18:42 | 49.96679 | 8.13509 | 3003 ft | 188 kts | 201° |
| 2026-05-08 18:42 | 49.95708 | 8.12155 | 3014 ft | 192 kts | 236° |
| 2026-05-08 18:42 | 49.94983 | 8.10393 | 3018 ft | 195 kts | 237° |
| 2026-05-08 18:43 | 49.94263 | 8.08629 | 3015 ft | 195 kts | 237° |
| 2026-05-08 18:43 | 49.93393 | 8.07058 | 3006 ft | 193 kts | 210° |
| 2026-05-08 18:43 | 49.92123 | 8.06631 | 3001 ft | 187 kts | 168° |
| 2026-05-08 18:43 | 49.91007 | 8.07552 | 3014 ft | 183 kts | 134° |
| 2026-05-08 18:44 | 49.90125 | 8.08987 | 3022 ft | 185 kts | 130° |
| 2026-05-08 18:44 | 49.89245 | 8.10457 | 3024 ft | 188 kts | 130° |
| 2026-05-08 18:44 | 49.88348 | 8.11957 | 3024 ft | 191 kts | 130° |
| 2026-05-08 18:44 | 49.87565 | 8.13627 | 2845 ft | 195 kts | 111° |
| 2026-05-08 18:45 | 49.87100 | 8.15655 | 2707 ft | 206 kts | 106° |
| 2026-05-08 18:45 | 49.86649 | 8.17818 | 2616 ft | 215 kts | 106° |
| 2026-05-08 18:45 | 49.86180 | 8.20050 | 2553 ft | 220 kts | 106° |
| 2026-05-08 18:45 | 49.85691 | 8.22386 | 2499 ft | 224 kts | 106° |
| 2026-05-08 18:46 | 49.85224 | 8.24643 | 2400 ft | 228 kts | 104° |
| 2026-05-08 18:46 | 49.84830 | 8.27042 | 2190 ft | 232 kts | 102° |
| 2026-05-08 18:46 | 49.84464 | 8.29489 | 2022 ft | 234 kts | 101° |
| 2026-05-08 18:46 | 49.84115 | 8.31917 | 2019 ft | 225 kts | 100° |
| 2026-05-08 18:47 | 49.83799 | 8.34181 | 2015 ft | 206 kts | 101° |
| 2026-05-08 18:47 | 49.83504 | 8.36280 | 1997 ft | 194 kts | 100° |
| 2026-05-08 18:47 | 49.83222 | 8.38272 | 1943 ft | 187 kts | 101° |
| 2026-05-08 18:47 | 49.82949 | 8.40206 | 1862 ft | 182 kts | 100° |
| 2026-05-08 18:48 | 49.82692 | 8.42025 | 1776 ft | 178 kts | 100° |
| 2026-05-08 18:48 | 49.82421 | 8.43924 | 1647 ft | 175 kts | 100° |
| 2026-05-08 18:48 | 49.82159 | 8.45753 | 1507 ft | 173 kts | 100° |
| 2026-05-08 18:48 | 49.81943 | 8.47581 | 1376 ft | 172 kts | 91° |
| 2026-05-08 18:49 | 49.82149 | 8.49349 | 1308 ft | 167 kts | 70° |
| 2026-05-08 18:49 | 49.82542 | 8.51063 | 1312 ft | 172 kts | 69° |
| 2026-05-08 18:49 | 49.82953 | 8.52838 | 1322 ft | 176 kts | 69° |
| 2026-05-08 18:49 | 49.83397 | 8.54599 | 1324 ft | 174 kts | 62° |
| 2026-05-08 18:50 | 49.84035 | 8.56193 | 1322 ft | 172 kts | 57° |
| 2026-05-08 18:50 | 49.84685 | 8.57721 | 1322 ft | 167 kts | 56° |
| 2026-05-08 18:50 | 49.85355 | 8.59191 | 1310 ft | 168 kts | 46° |
| 2026-05-08 18:50 | 49.86373 | 8.60031 | 1315 ft | 168 kts | 18° |
| 2026-05-08 18:51 | 49.87498 | 8.60369 | 1311 ft | 157 kts | 10° |
| 2026-05-08 18:51 | 49.88517 | 8.60634 | 1302 ft | 140 kts | 8° |
| 2026-05-08 18:51 | 49.89449 | 8.60782 | 1303 ft | 131 kts | 3° |
| 2026-05-08 18:51 | 49.90340 | 8.60878 | 1305 ft | 124 kts | 7° |
| 2026-05-08 18:52 | 49.91170 | 8.61020 | 1298 ft | 118 kts | 8° |
| 2026-05-08 18:52 | 49.92030 | 8.61152 | 1237 ft | 134 kts | 7° |
| 2026-05-08 18:52 | 49.92961 | 8.61313 | 1150 ft | 136 kts | 7° |
| 2026-05-08 18:52 | 49.93896 | 8.61268 | 1057 ft | 135 kts | 354° |
| 2026-05-08 18:53 | 49.94810 | 8.61041 | 1046 ft | 133 kts | 351° |
| 2026-05-08 18:53 | 49.95739 | 8.60984 | 961 ft | 125 kts | 28° |
| 2026-05-08 18:53 | 49.96074 | 8.62091 | 605 ft | 134 kts | 95° |
| 2026-05-08 18:53 | 49.96050 | 8.63473 | 386 ft | 124 kts | 82° |
| 2026-05-08 18:54 | 49.96093 | 8.64386 | 389 ft | 38 kts | 85° |
| 2026-05-08 18:54 | 49.96118 | 8.64494 | 389 ft | 9 kts | 29° |
| 2026-05-08 18:54 | 49.96177 | 8.64550 | 387 ft | 8 kts | 43° |
| 2026-05-08 18:54 | 49.96189 | 8.64652 | 387 ft | 8 kts | 84° |
| 2026-05-08 18:55 | 49.96268 | 8.64697 | 387 ft | 6 kts | 47° |
| 2026-05-08 18:55 | 49.96284 | 8.64697 | 387 ft | 0 kts | 237° |